createdAt,value
2022-12-07T09:14:33.410Z,18.80
2022-12-07T09:17:10.103Z,18.33
2022-12-07T09:19:36.485Z,18.65
2022-12-07T09:22:03.056Z,17.10
2022-12-07T09:24:28.895Z,18.90
2022-12-07T09:26:54.636Z,20.10
2022-12-07T09:29:20.433Z,18.90
2022-12-07T09:31:46.303Z,20.50
2022-12-07T09:34:12.145Z,19.08
2022-12-07T09:36:37.958Z,18.40
2022-12-07T09:39:05.001Z,18.42
2022-12-07T09:41:31.686Z,20.83
2022-12-07T09:44:05.150Z,22.20
2022-12-07T09:46:39.076Z,20.63
2022-12-07T09:49:05.639Z,20.75
2022-12-07T09:51:32.271Z,19.88
2022-12-07T09:53:58.937Z,20.60
2022-12-07T09:56:25.256Z,19.63
2022-12-07T09:58:59.608Z,19.92
2022-12-07T10:01:27.768Z,18.73
2022-12-07T10:04:00.961Z,19.98
2022-12-07T10:06:26.737Z,21.63
2022-12-07T10:08:52.681Z,20.02
2022-12-07T10:11:18.571Z,21.52
2022-12-07T10:13:53.451Z,20.85
2022-12-07T10:16:37.279Z,22.15
2022-12-07T10:19:26.499Z,22.95
2022-12-07T10:22:30.334Z,21.85
2022-12-07T10:25:09.567Z,19.70
2022-12-07T10:27:35.433Z,20.30
2022-12-07T10:30:08.001Z,21.92
2022-12-07T10:32:36.122Z,18.42
2022-12-07T10:35:19.639Z,20.88
2022-12-07T10:37:46.066Z,18.20
2022-12-07T10:40:36.018Z,18.05
2022-12-07T10:43:19.979Z,17.42
2022-12-07T10:46:08.970Z,17.88
2022-12-07T10:48:59.500Z,16.92
2022-12-07T10:51:39.700Z,15.70
2022-12-07T10:54:42.749Z,14.80
2022-12-07T10:57:15.304Z,17.33
2022-12-07T10:59:41.101Z,15.18
2022-12-07T11:02:27.001Z,15.40
2022-12-07T11:07:29.661Z,14.35
2022-12-07T11:10:14.137Z,17.08
2022-12-07T11:13:02.855Z,14.88
2022-12-07T11:15:46.930Z,15.90
2022-12-07T11:18:19.510Z,15.45
2022-12-07T11:20:56.208Z,13.43
2022-12-07T11:23:40.407Z,13.80
2022-12-07T11:26:18.195Z,14.63
2022-12-07T11:29:07.839Z,13.80
2022-12-07T11:31:48.816Z,11.90
2022-12-07T11:34:14.654Z,11.73
2022-12-07T11:36:50.782Z,11.63
2022-12-07T11:39:27.615Z,9.80
2022-12-07T11:42:02.518Z,9.25
2022-12-07T11:44:37.914Z,9.45
2022-12-07T11:47:41.164Z,10.23
2022-12-07T11:50:32.705Z,9.20
2022-12-07T11:53:03.610Z,11.63
2022-12-07T11:55:47.920Z,10.95
2022-12-07T11:58:38.693Z,10.95
2022-12-07T12:01:20.824Z,11.15
2022-12-07T12:04:02.609Z,11.93
2022-12-07T12:06:28.483Z,11.80
2022-12-07T12:15:48.585Z,12.85
2022-12-07T12:18:36.873Z,13.25
2022-12-07T12:21:27.794Z,14.15
2022-12-07T12:24:11.828Z,14.23
2022-12-07T12:26:38.877Z,14.27
2022-12-07T12:29:18.518Z,13.82
2022-12-07T12:32:05.342Z,14.60
2022-12-07T12:34:50.769Z,14.35
2022-12-07T12:37:35.171Z,14.57
2022-12-07T12:40:23.715Z,14.43
2022-12-07T12:42:55.733Z,14.75
2022-12-07T12:45:25.814Z,14.05
2022-12-07T12:48:00.534Z,14.82
2022-12-07T12:50:30.831Z,14.60
2022-12-07T12:53:05.233Z,14.32
2022-12-07T12:56:01.296Z,14.45
2022-12-07T12:58:33.254Z,14.07
2022-12-07T13:01:30.263Z,13.68
2022-12-07T13:03:57.058Z,15.07
2022-12-07T13:06:25.593Z,14.32
2022-12-07T13:08:54.677Z,14.52
2022-12-07T13:11:32.381Z,15.65
2022-12-07T13:14:35.481Z,15.50
2022-12-07T13:17:01.822Z,14.85
2022-12-07T13:19:54.372Z,14.68
2022-12-07T13:22:40.945Z,14.43
2022-12-07T13:25:21.508Z,15.13
2022-12-07T13:28:02.656Z,14.68
2022-12-07T13:30:29.914Z,16.13
2022-12-07T13:32:59.122Z,14.55
2022-12-07T13:35:43.585Z,14.13
2022-12-07T13:38:21.222Z,14.13
2022-12-07T13:41:13.481Z,13.07
2022-12-07T13:44:13.433Z,12.15
2022-12-07T13:47:09.633Z,12.85
2022-12-07T13:50:02.532Z,12.43
2022-12-07T13:52:31.676Z,13.48
2022-12-07T13:55:06.902Z,12.13
2022-12-07T13:57:36.339Z,11.80
2022-12-07T14:00:13.705Z,13.15
2022-12-07T14:02:59.570Z,12.45
2022-12-07T14:05:28.211Z,13.35
2022-12-07T14:07:55.058Z,11.85
2022-12-07T14:10:28.198Z,13.30
2022-12-07T14:12:54.937Z,13.27
2022-12-07T14:15:24.160Z,13.05
2022-12-07T14:17:52.189Z,13.85
2022-12-07T14:20:38.770Z,12.90
2022-12-07T14:23:12.281Z,14.30
2022-12-07T14:25:51.400Z,13.95
2022-12-07T14:28:34.572Z,13.77
2022-12-07T14:31:01.566Z,14.00
2022-12-07T14:33:28.390Z,15.05
2022-12-07T14:35:58.258Z,13.63
2022-12-07T14:38:26.039Z,13.60
2022-12-07T14:40:53.590Z,13.15
2022-12-07T14:43:20.789Z,14.32
2022-12-07T14:45:47.069Z,16.25
2022-12-07T14:53:55.071Z,15.10
2022-12-07T14:56:23.388Z,14.90
2022-12-07T14:58:49.262Z,14.88
2022-12-07T15:01:15.201Z,14.50
2022-12-07T15:03:41.196Z,14.32
2022-12-07T15:06:07.522Z,12.77
2022-12-07T15:08:33.789Z,12.73
2022-12-07T15:10:59.640Z,10.38
2022-12-07T15:13:44.112Z,8.38
2022-12-07T15:16:13.639Z,7.75
2022-12-07T15:18:45.196Z,6.90
2022-12-07T15:21:16.609Z,7.00
2022-12-07T15:23:42.849Z,7.18
2022-12-07T15:26:10.884Z,7.95
2022-12-07T15:28:37.099Z,7.85
2022-12-07T15:31:23.382Z,8.55
2022-12-07T15:33:49.087Z,9.43
2022-12-07T15:36:23.690Z,8.95
2022-12-07T15:39:13.008Z,7.70
2022-12-07T15:41:36.239Z,10.38
2022-12-07T15:44:20.605Z,9.45
2022-12-07T15:46:46.435Z,9.57
2022-12-07T15:49:18.713Z,11.25
2022-12-07T15:51:45.717Z,11.68
2022-12-07T15:54:16.367Z,11.73
2022-12-07T15:56:42.286Z,12.20
2022-12-07T15:59:08.182Z,11.80
2022-12-07T16:01:34.147Z,11.43
2022-12-07T16:04:00.083Z,12.52
2022-12-07T16:06:26.383Z,12.65
2022-12-07T16:08:52.754Z,13.50
2022-12-07T16:11:18.647Z,12.48
2022-12-07T16:13:44.408Z,11.63
2022-12-07T16:16:13.909Z,11.23
2022-12-07T16:18:40.303Z,11.77
2022-12-07T16:21:06.294Z,11.85
2022-12-07T16:23:32.611Z,10.73
2022-12-07T16:26:24.819Z,11.07
2022-12-07T16:28:53.134Z,11.00
2022-12-07T16:31:21.990Z,10.10
2022-12-07T16:33:49.370Z,9.75
2022-12-07T16:36:18.644Z,10.48
2022-12-07T16:38:54.724Z,10.07
2022-12-07T16:41:20.840Z,11.13
2022-12-07T16:43:46.829Z,10.75
2022-12-07T16:46:13.507Z,10.77
2022-12-07T16:48:40.160Z,9.57
2022-12-07T16:51:09.381Z,9.70
2022-12-07T16:53:37.016Z,10.35
2022-12-07T16:56:03.163Z,10.45
2022-12-07T16:58:29.180Z,9.57
2022-12-07T17:00:55.209Z,10.40
2022-12-07T17:03:21.198Z,10.55
2022-12-07T17:05:47.344Z,10.65
2022-12-07T17:08:14.086Z,10.90
2022-12-07T17:10:42.734Z,9.65
2022-12-07T17:13:27.728Z,9.82
2022-12-07T17:15:58.290Z,11.00
2022-12-07T17:18:24.099Z,11.38
2022-12-07T17:20:49.975Z,10.98
2022-12-07T17:23:15.733Z,12.18
2022-12-07T17:25:41.582Z,11.10
2022-12-07T17:28:07.454Z,11.35
2022-12-07T17:30:33.217Z,11.57
2022-12-07T17:32:59.017Z,12.10
2022-12-07T17:35:25.069Z,12.35
2022-12-07T17:37:51.359Z,12.60
2022-12-07T17:40:17.336Z,12.65
2022-12-07T17:42:47.530Z,14.10
2022-12-07T17:45:13.503Z,13.75
2022-12-07T17:47:40.054Z,13.80
2022-12-07T17:50:07.600Z,13.45
2022-12-07T17:52:52.628Z,14.65
2022-12-07T17:55:18.632Z,15.93
2022-12-07T17:57:44.498Z,16.30
2022-12-07T18:00:12.074Z,16.90
2022-12-07T18:02:38.582Z,19.35
2022-12-07T18:05:05.176Z,18.55
2022-12-07T18:07:31.381Z,19.83
2022-12-07T18:09:57.366Z,19.52
2022-12-07T18:12:23.267Z,21.20
2022-12-07T18:14:50.232Z,21.52
2022-12-07T18:17:17.625Z,22.55
2022-12-07T18:19:43.503Z,22.90
2022-12-07T18:22:10.166Z,22.60
2022-12-07T18:24:37.534Z,23.35
2022-12-07T18:27:04.977Z,23.83
2022-12-07T18:29:30.788Z,24.13
2022-12-07T18:31:57.020Z,25.30
2022-12-07T18:34:22.960Z,27.25
2022-12-07T18:36:49.774Z,27.75
2022-12-07T18:39:17.623Z,25.88
2022-12-07T18:41:43.723Z,26.00
2022-12-07T18:44:12.471Z,27.45
2022-12-07T18:46:40.279Z,26.73
2022-12-07T18:49:06.429Z,29.38
2022-12-07T18:51:32.882Z,28.08
2022-12-07T18:54:00.404Z,28.17
2022-12-07T18:56:26.792Z,27.58
2022-12-07T18:59:16.764Z,25.60
2022-12-07T19:01:44.992Z,26.42
2022-12-07T19:04:10.935Z,25.27
2022-12-07T19:06:37.414Z,24.40
2022-12-07T19:09:04.104Z,25.08
2022-12-07T19:11:50.470Z,24.48
2022-12-07T19:14:32.141Z,22.88
2022-12-07T19:17:01.832Z,25.20
2022-12-07T19:19:36.933Z,23.60
2022-12-07T19:22:03.736Z,25.92
2022-12-07T19:24:29.783Z,25.00
2022-12-07T19:26:56.581Z,24.55
2022-12-07T19:29:22.664Z,25.60
2022-12-07T19:31:48.643Z,24.77
2022-12-07T19:34:16.747Z,26.40
2022-12-07T19:36:43.283Z,26.13
2022-12-07T19:39:14.435Z,24.73
2022-12-07T19:41:42.994Z,24.77
2022-12-07T19:44:13.685Z,25.00
2022-12-07T19:46:40.774Z,24.02
2022-12-07T19:49:06.586Z,22.23
2022-12-07T19:51:32.951Z,22.63
2022-12-07T19:54:00.574Z,21.35
2022-12-07T19:56:28.339Z,21.98
2022-12-07T19:58:55.276Z,20.92
2022-12-07T20:01:21.980Z,21.10
2022-12-07T20:03:48.163Z,20.83
2022-12-07T20:06:18.125Z,21.65
2022-12-07T20:08:46.712Z,22.33
2022-12-07T20:11:33.560Z,21.63
2022-12-07T20:13:59.793Z,20.65
2022-12-07T20:16:25.876Z,21.42
2022-12-07T20:18:57.349Z,21.63
2022-12-07T20:21:24.582Z,20.33
2022-12-07T20:23:50.746Z,21.13
2022-12-07T20:26:16.617Z,21.25
2022-12-07T20:28:45.618Z,21.30
2022-12-07T20:31:15.545Z,21.65
2022-12-07T20:33:46.463Z,21.60
2022-12-07T20:36:15.270Z,20.77
2022-12-07T20:38:41.637Z,22.00
2022-12-07T20:41:28.051Z,20.67
2022-12-07T20:43:54.147Z,22.60
2022-12-07T20:46:20.222Z,22.85
2022-12-07T20:48:46.120Z,23.17
2022-12-07T20:51:11.890Z,22.80
2022-12-07T20:53:37.711Z,23.67
2022-12-07T20:56:03.829Z,22.95
2022-12-07T20:58:30.009Z,24.30
2022-12-07T21:01:03.304Z,23.50
2022-12-07T21:03:29.199Z,23.67
2022-12-07T21:05:55.043Z,22.75
2022-12-07T21:08:20.970Z,25.10
2022-12-07T21:10:46.872Z,24.10
2022-12-07T21:13:12.808Z,23.42
2022-12-07T21:15:38.955Z,23.77
2022-12-07T21:18:07.586Z,23.17
2022-12-07T21:20:33.625Z,22.45
2022-12-07T21:22:59.512Z,23.48
2022-12-07T21:25:25.408Z,23.33
2022-12-07T21:27:51.248Z,23.38
2022-12-07T21:30:17.368Z,23.58
2022-12-07T21:32:43.263Z,24.48
2022-12-07T21:35:09.521Z,24.92
2022-12-07T21:37:35.541Z,22.92
2022-12-07T21:40:01.363Z,21.35
2022-12-07T21:42:27.174Z,21.85
2022-12-07T21:44:53.385Z,21.45
2022-12-07T21:47:19.207Z,21.20
2022-12-07T21:49:45.077Z,20.40
2022-12-07T21:52:10.927Z,21.95
2022-12-07T21:54:36.896Z,21.05
2022-12-07T21:57:02.871Z,20.38
2022-12-07T21:59:28.760Z,19.17
2022-12-07T22:01:54.746Z,19.60
2022-12-07T22:04:25.297Z,18.25
2022-12-07T22:06:52.101Z,18.48
2022-12-07T22:09:18.960Z,18.00
2022-12-07T22:11:45.783Z,17.75
2022-12-07T22:14:30.692Z,18.27
2022-12-07T22:16:57.354Z,17.10
2022-12-07T22:19:23.371Z,16.20
2022-12-07T22:21:49.221Z,17.02
2022-12-07T22:24:15.236Z,17.85
2022-12-07T22:26:42.367Z,18.15
2022-12-07T22:29:08.282Z,17.40
2022-12-07T22:31:34.865Z,18.27
2022-12-07T22:34:00.732Z,17.65
2022-12-07T22:36:28.588Z,17.90
2022-12-07T22:38:54.614Z,17.83
2022-12-07T22:41:27.630Z,18.33
2022-12-07T22:43:54.148Z,16.35
2022-12-07T22:46:20.374Z,16.95
2022-12-07T22:48:46.984Z,16.15
2022-12-07T22:51:27.561Z,17.40
2022-12-07T22:53:54.233Z,16.63
2022-12-07T22:56:21.238Z,16.77
2022-12-07T22:58:48.188Z,17.08
2022-12-07T23:01:16.665Z,17.45
2022-12-07T23:03:43.461Z,16.80
2022-12-07T23:06:14.087Z,16.58
2022-12-07T23:08:40.187Z,17.60
2022-12-07T23:11:09.777Z,16.85
2022-12-07T23:13:37.285Z,18.13
2022-12-07T23:16:14.545Z,17.02
2022-12-07T23:18:41.616Z,17.55
2022-12-07T23:21:08.614Z,16.60
2022-12-07T23:23:34.987Z,18.20
2022-12-07T23:26:03.291Z,16.92
2022-12-07T23:28:29.148Z,16.52
2022-12-07T23:31:14.509Z,15.55
2022-12-07T23:33:41.256Z,16.42
2022-12-07T23:36:18.834Z,17.08
2022-12-07T23:38:49.183Z,16.05
2022-12-07T23:41:16.642Z,16.55
2022-12-07T23:43:43.022Z,17.60
2022-12-07T23:46:15.948Z,17.27
2022-12-07T23:48:42.422Z,14.30
2022-12-07T23:51:09.511Z,16.10
2022-12-07T23:53:37.534Z,16.48
2022-12-07T23:56:04.201Z,16.27
2022-12-07T23:58:30.177Z,16.35
